sensor_id;sensor_type;location;lat;lon;timestamp;temperature;humidity
18268;DHT22;9260;49.998;19.880;2023-06-14T00:08:04;7.80;1.00
18268;DHT22;9260;49.998;19.880;2023-06-14T00:18:09;8.00;1.00
18268;DHT22;9260;49.998;19.880;2023-06-14T00:28:15;8.30;1.00
18268;DHT22;9260;49.998;19.880;2023-06-14T00:38:18;8.30;1.00
18268;DHT22;9260;49.998;19.880;2023-06-14T00:48:23;8.70;1.00
18268;DHT22;9260;49.998;19.880;2023-06-14T00:58:27;8.70;1.00
18268;DHT22;9260;49.998;19.880;2023-06-14T01:08:34;8.80;1.00
18268;DHT22;9260;49.998;19.880;2023-06-14T01:18:42;8.80;1.00
18268;DHT22;9260;49.998;19.880;2023-06-14T01:28:51;9.00;1.00
18268;DHT22;9260;49.998;19.880;2023-06-14T01:39:00;9.10;1.00
18268;DHT22;9260;49.998;19.880;2023-06-14T01:49:05;9.20;1.00
18268;DHT22;9260;49.998;19.880;2023-06-14T01:59:09;8.20;1.00
18268;DHT22;9260;49.998;19.880;2023-06-14T02:09:13;9.10;1.00
18268;DHT22;9260;49.998;19.880;2023-06-14T02:19:17;9.00;1.00
18268;DHT22;9260;49.998;19.880;2023-06-14T02:29:23;11.30;1.00
18268;DHT22;9260;49.998;19.880;2023-06-14T02:39:26;9.20;1.00
18268;DHT22;9260;49.998;19.880;2023-06-14T02:49:31;9.20;1.00
18268;DHT22;9260;49.998;19.880;2023-06-14T02:59:34;9.20;1.00
18268;DHT22;9260;49.998;19.880;2023-06-14T03:09:40;9.80;99.90
18268;DHT22;9260;49.998;19.880;2023-06-14T03:19:46;9.60;1.00
18268;DHT22;9260;49.998;19.880;2023-06-14T03:29:52;9.70;1.00
18268;DHT22;9260;49.998;19.880;2023-06-14T03:39:56;9.80;1.00
18268;DHT22;9260;49.998;19.880;2023-06-14T03:50:01;9.90;1.00
18268;DHT22;9260;49.998;19.880;2023-06-14T04:00:05;10.00;1.00
18268;DHT22;9260;49.998;19.880;2023-06-14T04:10:16;10.00;99.90
18268;DHT22;9260;49.998;19.880;2023-06-14T04:20:19;10.20;1.00
18268;DHT22;9260;49.998;19.880;2023-06-14T04:30:25;10.10;99.90
18268;DHT22;9260;49.998;19.880;2023-06-14T04:40:32;9.90;1.00
18268;DHT22;9260;49.998;19.880;2023-06-14T04:50:37;9.80;1.00
18268;DHT22;9260;49.998;19.880;2023-06-14T05:00:42;9.80;1.00
18268;DHT22;9260;49.998;19.880;2023-06-14T05:10:47;9.90;1.00
18268;DHT22;9260;49.998;19.880;2023-06-14T05:20:51;10.30;1.00
18268;DHT22;9260;49.998;19.880;2023-06-14T05:30:56;10.30;99.90
18268;DHT22;9260;49.998;19.880;2023-06-14T05:40:59;10.60;1.00
18268;DHT22;9260;49.998;19.880;2023-06-14T05:51:04;10.90;99.90
18268;DHT22;9260;49.998;19.880;2023-06-14T06:01:10;11.60;1.00
18268;DHT22;9260;49.998;19.880;2023-06-14T06:11:16;11.90;99.90
18268;DHT22;9260;49.998;19.880;2023-06-14T06:21:19;12.10;99.90
18268;DHT22;9260;49.998;19.880;2023-06-14T06:31:24;12.20;99.90
18268;DHT22;9260;49.998;19.880;2023-06-14T06:41:29;11.70;99.90
18268;DHT22;9260;49.998;19.880;2023-06-14T06:51:36;11.70;99.90
18268;DHT22;9260;49.998;19.880;2023-06-14T07:01:40;11.40;99.90
18268;DHT22;9260;49.998;19.880;2023-06-14T07:11:46;11.70;99.90
18268;DHT22;9260;49.998;19.880;2023-06-14T07:21:50;12.10;99.90
18268;DHT22;9260;49.998;19.880;2023-06-14T07:31:56;12.10;99.90
18268;DHT22;9260;49.998;19.880;2023-06-14T07:41:59;12.10;1.00
18268;DHT22;9260;49.998;19.880;2023-06-14T07:52:04;12.70;99.90
18268;DHT22;9260;49.998;19.880;2023-06-14T08:02:08;13.00;99.90
18268;DHT22;9260;49.998;19.880;2023-06-14T08:12:13;12.90;99.90
18268;DHT22;9260;49.998;19.880;2023-06-14T08:22:17;12.80;99.90
18268;DHT22;9260;49.998;19.880;2023-06-14T08:32:22;12.90;99.90
18268;DHT22;9260;49.998;19.880;2023-06-14T08:42:26;13.30;99.90
18268;DHT22;9260;49.998;19.880;2023-06-14T08:52:38;14.00;99.90
18268;DHT22;9260;49.998;19.880;2023-06-14T09:02:47;15.20;99.90
18268;DHT22;9260;49.998;19.880;2023-06-14T09:12:51;14.60;99.90
18268;DHT22;9260;49.998;19.880;2023-06-14T09:22:55;14.90;99.90
18268;DHT22;9260;49.998;19.880;2023-06-14T09:33:00;14.50;99.90
18268;DHT22;9260;49.998;19.880;2023-06-14T09:43:04;14.90;99.90
18268;DHT22;9260;49.998;19.880;2023-06-14T09:53:11;14.60;99.90
18268;DHT22;9260;49.998;19.880;2023-06-14T10:03:16;14.40;99.90
18268;DHT22;9260;49.998;19.880;2023-06-14T10:13:25;15.10;99.90
18268;DHT22;9260;49.998;19.880;2023-06-14T10:23:29;15.00;99.90
18268;DHT22;9260;49.998;19.880;2023-06-14T10:33:35;16.50;99.90
18268;DHT22;9260;49.998;19.880;2023-06-14T10:43:40;17.50;99.90
18268;DHT22;9260;49.998;19.880;2023-06-14T10:53:44;17.40;99.90
18268;DHT22;9260;49.998;19.880;2023-06-14T11:03:50;19.40;99.90
18268;DHT22;9260;49.998;19.880;2023-06-14T11:13:56;20.70;99.90
18268;DHT22;9260;49.998;19.880;2023-06-14T11:23:59;20.90;99.90
18268;DHT22;9260;49.998;19.880;2023-06-14T11:34:04;24.70;99.90
18268;DHT22;9260;49.998;19.880;2023-06-14T11:44:08;27.10;99.90
18268;DHT22;9260;49.998;19.880;2023-06-14T11:54:15;26.50;99.90
18268;DHT22;9260;49.998;19.880;2023-06-14T12:04:23;26.00;99.90
18268;DHT22;9260;49.998;19.880;2023-06-14T12:14:29;25.10;99.90
18268;DHT22;9260;49.998;19.880;2023-06-14T12:24:33;25.00;99.90
18268;DHT22;9260;49.998;19.880;2023-06-14T12:34:38;23.60;99.90
18268;DHT22;9260;49.998;19.880;2023-06-14T12:44:41;23.70;99.90
18268;DHT22;9260;49.998;19.880;2023-06-14T12:54:47;22.60;99.90
18268;DHT22;9260;49.998;19.880;2023-06-14T13:04:50;22.70;99.90
18268;DHT22;9260;49.998;19.880;2023-06-14T13:14:55;22.60;99.90
18268;DHT22;9260;49.998;19.880;2023-06-14T13:24:59;22.90;99.90
18268;DHT22;9260;49.998;19.880;2023-06-14T13:35:04;23.10;99.90
18268;DHT22;9260;49.998;19.880;2023-06-14T13:45:09;22.40;99.90
18268;DHT22;9260;49.998;19.880;2023-06-14T13:55:15;22.10;99.90
18268;DHT22;9260;49.998;19.880;2023-06-14T14:05:19;22.10;99.90
18268;DHT22;9260;49.998;19.880;2023-06-14T14:15:24;20.70;99.90
18268;DHT22;9260;49.998;19.880;2023-06-14T14:25:27;20.20;99.90
18268;DHT22;9260;49.998;19.880;2023-06-14T14:35:32;20.20;99.90
18268;DHT22;9260;49.998;19.880;2023-06-14T14:45:35;20.80;99.90
18268;DHT22;9260;49.998;19.880;2023-06-14T14:55:40;20.70;99.90
18268;DHT22;9260;49.998;19.880;2023-06-14T15:05:44;20.60;99.90
18268;DHT22;9260;49.998;19.880;2023-06-14T15:15:49;19.60;99.90
18268;DHT22;9260;49.998;19.880;2023-06-14T15:25:53;17.80;99.90
18268;DHT22;9260;49.998;19.880;2023-06-14T15:35:58;18.60;99.90
18268;DHT22;9260;49.998;19.880;2023-06-14T15:46:01;19.40;99.90
18268;DHT22;9260;49.998;19.880;2023-06-14T15:56:06;19.90;99.90
18268;DHT22;9260;49.998;19.880;2023-06-14T16:06:09;20.10;99.90
18268;DHT22;9260;49.998;19.880;2023-06-14T16:16:14;19.10;99.90
18268;DHT22;9260;49.998;19.880;2023-06-14T16:26:18;18.40;99.90
18268;DHT22;9260;49.998;19.880;2023-06-14T16:36:24;17.30;99.90
18268;DHT22;9260;49.998;19.880;2023-06-14T16:46:28;17.90;99.90
18268;DHT22;9260;49.998;19.880;2023-06-14T16:56:34;17.90;99.90
18268;DHT22;9260;49.998;19.880;2023-06-14T17:06:38;18.00;99.90
18268;DHT22;9260;49.998;19.880;2023-06-14T17:16:43;17.90;99.90
18268;DHT22;9260;49.998;19.880;2023-06-14T17:26:46;17.80;99.90
18268;DHT22;9260;49.998;19.880;2023-06-14T17:36:52;17.00;99.90
18268;DHT22;9260;49.998;19.880;2023-06-14T17:46:55;15.20;99.90
18268;DHT22;9260;49.998;19.880;2023-06-14T17:57:00;15.70;99.90
18268;DHT22;9260;49.998;19.880;2023-06-14T18:07:04;15.30;99.90
18268;DHT22;9260;49.998;19.880;2023-06-14T18:17:10;14.30;99.90
18268;DHT22;9260;49.998;19.880;2023-06-14T18:27:14;13.70;99.90
18268;DHT22;9260;49.998;19.880;2023-06-14T18:37:18;13.30;99.90
18268;DHT22;9260;49.998;19.880;2023-06-14T18:47:22;13.30;99.90
18268;DHT22;9260;49.998;19.880;2023-06-14T18:57:28;12.70;99.90
18268;DHT22;9260;49.998;19.880;2023-06-14T19:07:31;12.50;99.90
18268;DHT22;9260;49.998;19.880;2023-06-14T19:17:36;12.20;99.90
18268;DHT22;9260;49.998;19.880;2023-06-14T19:27:40;11.70;99.90
18268;DHT22;9260;49.998;19.880;2023-06-14T19:37:45;11.20;99.90
18268;DHT22;9260;49.998;19.880;2023-06-14T19:47:48;10.70;1.00
18268;DHT22;9260;49.998;19.880;2023-06-14T19:57:53;10.80;1.00
18268;DHT22;9260;49.998;19.880;2023-06-14T20:07:57;10.10;1.00
18268;DHT22;9260;49.998;19.880;2023-06-14T20:18:02;9.80;1.00
18268;DHT22;9260;49.998;19.880;2023-06-14T20:28:05;9.50;1.00
18268;DHT22;9260;49.998;19.880;2023-06-14T20:38:10;9.40;1.00
18268;DHT22;9260;49.998;19.880;2023-06-14T20:48:14;9.20;1.00
18268;DHT22;9260;49.998;19.880;2023-06-14T20:58:20;10.00;1.00
18268;DHT22;9260;49.998;19.880;2023-06-14T21:08:24;8.80;1.00
18268;DHT22;9260;49.998;19.880;2023-06-14T21:18:29;8.60;1.00
18268;DHT22;9260;49.998;19.880;2023-06-14T21:28:32;8.40;1.00
18268;DHT22;9260;49.998;19.880;2023-06-14T21:38:37;8.10;1.00
18268;DHT22;9260;49.998;19.880;2023-06-14T21:48:40;7.90;1.00
18268;DHT22;9260;49.998;19.880;2023-06-14T21:58:45;7.60;1.00
18268;DHT22;9260;49.998;19.880;2023-06-14T22:08:48;7.40;1.00
18268;DHT22;9260;49.998;19.880;2023-06-14T22:18:53;7.30;1.00
18268;DHT22;9260;49.998;19.880;2023-06-14T22:28:58;7.30;1.00
18268;DHT22;9260;49.998;19.880;2023-06-14T22:39:09;7.30;1.00
18268;DHT22;9260;49.998;19.880;2023-06-14T22:49:13;8.10;1.00
18268;DHT22;9260;49.998;19.880;2023-06-14T22:59:20;6.80;1.00
18268;DHT22;9260;49.998;19.880;2023-06-14T23:09:25;7.60;1.00
18268;DHT22;9260;49.998;19.880;2023-06-14T23:19:30;6.70;1.00
18268;DHT22;9260;49.998;19.880;2023-06-14T23:29:34;6.60;1.00
18268;DHT22;9260;49.998;19.880;2023-06-14T23:39:38;6.30;1.00
18268;DHT22;9260;49.998;19.880;2023-06-14T23:49:50;5.90;1.00
18268;DHT22;9260;49.998;19.880;2023-06-14T23:59:54;5.80;1.00
